Surprise, AZ (85374)

8:58 AM MST on September 25, 2016 (GMT -0700)
Kingswood Parke | | Change Station

Elev 1227 ft 33.64 °N, 112.37 °W | Updated 50 seconds ago

Clear
Clear
81.5 °F
Feels Like 80 °F
N
8.3
Wind Variable Wind from West
Gusts 13.6 mph

Today
High -- | Low -- °F
--% Chance of Precip.
Yesterday
High -- | Low -- °F
Precip. -- in
Pressure 29.98 in
Visibility 10.0 miles
Clouds Clear
Heat Index 80 °F
Dew Point 41 °F
Humidity 24%
Rainfall 0.00 in
Snow Depth Not available.
6:20 AM 6:21 PM
Waning Crescent, 27% visible
METAR KLUF 251458Z AUTO 02016G23KT 10SM CLR 26/03 A3001 RMK AO2 SLP151 T02600033 52016 $
Pressure 29.98 in
Visibility 10.0 miles
Clouds Clear
Heat Index 80 °F
Dew Point 41 °F
Humidity 24%
Rainfall 0.00 in
Snow Depth Not available.
6:20 AM 6:21 PM
Waning Crescent, 27% visible
METAR KLUF 251458Z AUTO 02016G23KT 10SM CLR 26/03 A3001 RMK AO2 SLP151 T02600033 52016 $

10-Day Weather Forecast

Almanac

Astronomy

Sep. 25, 2016 Rise Set
Actual Time
Civil Twilight
Nautical Twilight
Astronomical Twilight
Moon
Length of Visible Light
Length of Day
Tomorrow will be .
, % of the Moon is Illuminated

Today's Extremes

State Highs State Lows

Community

WunderPhotos

Upload Photos

1,941,644 photos uploaded!

WunderBlog® & News

Nearby

Air Quality

  Air Quality AQ Index Pollutant
Not available.

Snow Depth

Station Depth Elevation

Earthquake Activity

City Distance Mag. Time & Date
Minimum magnitude displayed is 2.5.

Coastal Water Temperatures

Place Temperature

Stations

Nearby Weather Stations

Station Location Temp. Windchill Dew Point Humidity Wind Precip. Elev Updated Type
                   

Watches & Warnings

There are currently no watches in effect.